createdAt,value
2022-07-30T00:00:05.770Z,67.46
2022-07-30T00:01:06.736Z,67.46
2022-07-30T00:02:05.739Z,67.66
2022-07-30T00:03:05.765Z,67.76
2022-07-30T00:04:05.796Z,68.06
2022-07-30T00:05:05.705Z,67.56
2022-07-30T00:06:05.674Z,67.76
2022-07-30T00:07:05.712Z,67.69
2022-07-30T00:08:05.664Z,67.89
2022-07-30T00:09:05.654Z,67.79
2022-07-30T00:10:05.675Z,68.19
2022-07-30T00:11:05.654Z,68.43
2022-07-30T00:12:05.623Z,68.43
2022-07-30T00:13:05.587Z,68.62
2022-07-30T00:14:05.597Z,68.93
2022-07-30T00:15:05.626Z,69.12
2022-07-30T00:16:05.567Z,68.93
2022-07-30T00:17:05.755Z,69.02
2022-07-30T00:18:05.527Z,68.93
2022-07-30T00:19:05.525Z,68.73
2022-07-30T00:20:05.533Z,68.62
2022-07-30T00:21:05.528Z,68.32
2022-07-30T00:22:05.506Z,68.02
2022-07-30T00:23:05.523Z,67.72
2022-07-30T00:24:05.447Z,67.93
2022-07-30T00:25:05.598Z,67.82
2022-07-30T00:26:05.429Z,67.43
2022-07-30T00:27:05.440Z,67.43
2022-07-30T00:28:05.426Z,67.63
2022-07-30T00:29:05.389Z,68.59
2022-07-30T00:30:05.440Z,69.42
2022-07-30T00:31:05.495Z,70.46
2022-07-30T00:32:05.356Z,70.66
2022-07-30T00:33:05.337Z,70.76
2022-07-30T00:34:05.340Z,70.86
2022-07-30T00:35:05.311Z,70.66
2022-07-30T00:36:05.322Z,70.56
2022-07-30T00:37:05.299Z,70.43
2022-07-30T00:38:05.297Z,70.53
2022-07-30T00:39:05.772Z,70.43
2022-07-30T00:40:05.262Z,70.32
2022-07-30T00:41:05.274Z,70.32
2022-07-30T00:42:05.246Z,70.73
2022-07-30T00:43:05.250Z,70.73
2022-07-30T00:44:05.204Z,70.53
2022-07-30T00:45:05.194Z,70.62
2022-07-30T00:46:05.252Z,71.06
2022-07-30T00:47:05.228Z,71.70
2022-07-30T00:48:05.216Z,71.90
2022-07-30T00:49:05.194Z,72.09
2022-07-30T00:50:05.164Z,72.00
2022-07-30T00:51:05.137Z,71.90
2022-07-30T00:52:05.114Z,71.90
2022-07-30T00:53:05.086Z,72.00
2022-07-30T00:54:05.103Z,72.30
2022-07-30T00:55:05.051Z,72.40
2022-07-30T00:56:05.051Z,72.20
2022-07-30T00:57:05.013Z,72.40
2022-07-30T00:58:05.024Z,72.30
2022-07-30T00:59:04.977Z,71.80
2022-07-30T01:00:05.024Z,71.80
2022-07-30T01:01:04.992Z,71.59
2022-07-30T01:02:05.000Z,71.36
2022-07-30T01:03:04.956Z,71.46
2022-07-30T01:04:04.924Z,70.86
2022-07-30T01:05:04.961Z,70.56
2022-07-30T01:06:04.904Z,70.26
2022-07-30T01:07:04.908Z,70.03
2022-07-30T01:08:04.905Z,69.93
2022-07-30T01:09:04.959Z,69.82
2022-07-30T01:10:04.865Z,69.82
2022-07-30T01:11:04.831Z,70.06
2022-07-30T01:12:04.856Z,70.06
2022-07-30T01:13:04.845Z,70.26
2022-07-30T01:14:04.809Z,70.66
2022-07-30T01:15:04.779Z,70.66
2022-07-30T01:16:04.864Z,70.66
2022-07-30T01:17:04.773Z,70.56
2022-07-30T01:18:04.785Z,70.56
2022-07-30T01:19:04.771Z,70.56
2022-07-30T01:20:04.710Z,70.56
2022-07-30T01:21:04.745Z,70.46
2022-07-30T01:22:04.686Z,70.86
2022-07-30T01:23:04.723Z,70.86
2022-07-30T01:24:04.687Z,70.96
2022-07-30T01:25:04.655Z,71.00
2022-07-30T01:26:04.723Z,71.20
2022-07-30T01:27:04.635Z,71.30
2022-07-30T01:28:04.657Z,71.39
2022-07-30T01:29:04.661Z,71.39
2022-07-30T01:30:04.591Z,71.59
2022-07-30T01:31:04.623Z,71.50
2022-07-30T01:32:04.621Z,71.59
2022-07-30T01:33:04.565Z,71.20
2022-07-30T01:34:04.592Z,71.20
2022-07-30T01:35:04.533Z,71.33
2022-07-30T01:36:04.523Z,71.33
2022-07-30T01:37:04.700Z,71.53
2022-07-30T01:38:04.542Z,71.83
2022-07-30T01:39:04.504Z,72.13
2022-07-30T01:40:04.483Z,72.03
2022-07-30T01:41:04.465Z,71.97
2022-07-30T01:42:05.311Z,72.37
2022-07-30T01:43:04.442Z,72.80
2022-07-30T01:44:04.446Z,73.00
2022-07-30T01:45:04.407Z,73.10
2022-07-30T01:46:04.468Z,73.00
2022-07-30T01:47:04.362Z,73.30
2022-07-30T01:48:04.354Z,73.94
2022-07-30T01:49:04.431Z,74.78
2022-07-30T01:50:04.360Z,75.49
2022-07-30T01:51:04.334Z,75.62
2022-07-30T01:52:04.319Z,75.52
2022-07-30T01:53:04.318Z,75.72
2022-07-30T01:54:04.289Z,75.72
2022-07-30T01:55:04.321Z,75.68
2022-07-30T01:56:04.249Z,75.68
2022-07-30T01:57:04.262Z,75.18
2022-07-30T01:58:04.236Z,74.78
2022-07-30T01:59:04.206Z,74.74
2022-07-30T02:00:04.254Z,74.98
2022-07-30T02:01:04.274Z,74.98
2022-07-30T02:02:04.197Z,74.85
2022-07-30T02:03:04.174Z,74.85
2022-07-30T02:04:04.227Z,74.74
2022-07-30T02:05:04.172Z,74.44
2022-07-30T02:06:04.130Z,74.31
2022-07-30T02:07:04.438Z,74.11
2022-07-30T02:08:04.085Z,74.01
2022-07-30T02:09:06.994Z,74.01
2022-07-30T02:10:04.121Z,74.11
2022-07-30T02:11:04.125Z,73.91
2022-07-30T02:12:04.048Z,74.01
2022-07-30T02:13:04.043Z,74.04
2022-07-30T02:14:04.011Z,74.15
2022-07-30T02:15:04.026Z,74.44
2022-07-30T02:16:04.099Z,74.55
2022-07-30T02:17:04.323Z,74.35
2022-07-30T02:18:03.960Z,74.44
2022-07-30T02:19:04.380Z,74.55
2022-07-30T02:20:09.225Z,74.44
2022-07-30T02:21:07.290Z,74.35
2022-07-30T02:22:03.930Z,74.35
2022-07-30T02:23:03.900Z,74.35
2022-07-30T02:24:03.908Z,74.44
2022-07-30T02:25:03.889Z,74.55
2022-07-30T02:26:03.891Z,74.44
2022-07-30T02:27:04.273Z,74.55
2022-07-30T02:28:03.835Z,74.44
2022-07-30T02:29:07.307Z,74.55
2022-07-30T02:30:03.792Z,74.74
2022-07-30T02:31:03.840Z,74.95
2022-07-30T02:32:03.781Z,75.15
2022-07-30T02:33:03.813Z,75.15
2022-07-30T02:34:03.757Z,75.18
2022-07-30T02:35:03.800Z,75.38
2022-07-30T02:36:03.729Z,75.59
2022-07-30T02:37:03.942Z,75.79
2022-07-30T02:38:03.732Z,75.99
2022-07-30T02:39:03.703Z,76.32
2022-07-30T02:40:03.683Z,76.53
2022-07-30T02:41:03.678Z,76.73
2022-07-30T02:42:03.655Z,77.13
2022-07-30T02:43:03.712Z,76.46
2022-07-30T02:44:03.636Z,76.76
2022-07-30T02:45:03.660Z,76.36
2022-07-30T02:46:03.612Z,75.96
2022-07-30T02:47:04.591Z,75.76
2022-07-30T02:48:03.591Z,76.97
2022-07-30T02:49:03.598Z,77.77
2022-07-30T02:50:03.656Z,76.76
2022-07-30T02:51:03.541Z,76.56
2022-07-30T02:52:03.527Z,76.56
2022-07-30T02:53:03.525Z,76.76
2022-07-30T02:54:03.519Z,76.76
2022-07-30T02:55:03.532Z,76.67
2022-07-30T02:56:03.485Z,76.87
2022-07-30T02:57:03.809Z,76.76
2022-07-30T02:58:03.423Z,76.67
2022-07-30T02:59:03.484Z,76.53
2022-07-30T03:00:03.451Z,76.43
2022-07-30T03:01:03.557Z,76.32
2022-07-30T03:02:03.484Z,76.43
2022-07-30T03:03:03.382Z,76.43
2022-07-30T03:04:03.361Z,76.23
2022-07-30T03:05:03.371Z,76.43
2022-07-30T03:06:03.361Z,76.76
2022-07-30T03:07:08.201Z,77.31
2022-07-30T03:08:03.346Z,77.91
2022-07-30T03:09:03.306Z,78.15
2022-07-30T03:10:03.297Z,78.49
2022-07-30T03:11:03.314Z,78.99
2022-07-30T03:12:03.271Z,79.53
2022-07-30T03:13:03.235Z,80.88
2022-07-30T03:14:03.243Z,81.62
2022-07-30T03:15:03.223Z,82.03
2022-07-30T03:16:03.290Z,82.53
2022-07-30T03:17:03.302Z,82.53
2022-07-30T03:18:03.164Z,82.23
2022-07-30T03:19:03.197Z,82.13
2022-07-30T03:20:03.216Z,81.79
2022-07-30T03:21:03.182Z,81.28
2022-07-30T03:22:03.151Z,81.38
2022-07-30T03:23:03.147Z,82.15
2022-07-30T03:24:03.132Z,82.15
2022-07-30T03:25:03.092Z,81.85
2022-07-30T03:26:03.124Z,81.21
2022-07-30T03:27:03.321Z,80.50
2022-07-30T03:28:03.055Z,80.06
2022-07-30T03:29:03.028Z,79.86
2022-07-30T03:30:03.017Z,79.76
2022-07-30T03:31:03.098Z,79.46
2022-07-30T03:32:03.032Z,79.16
2022-07-30T03:33:03.009Z,78.96
2022-07-30T03:34:02.965Z,78.75
2022-07-30T03:35:06.075Z,78.75
2022-07-30T03:36:02.939Z,78.61
2022-07-30T03:37:03.377Z,78.55
2022-07-30T03:38:03.265Z,78.75
2022-07-30T03:39:02.912Z,78.85
2022-07-30T03:40:02.904Z,78.96
2022-07-30T03:41:02.884Z,79.29
2022-07-30T03:42:03.227Z,79.49
2022-07-30T03:43:02.858Z,79.69
2022-07-30T03:44:02.851Z,80.10
2022-07-30T03:45:02.862Z,80.20
2022-07-30T03:46:02.977Z,80.00
2022-07-30T03:47:03.464Z,80.00
2022-07-30T03:48:02.806Z,79.66
2022-07-30T03:49:02.829Z,79.46
2022-07-30T03:50:02.759Z,79.16
2022-07-30T03:51:02.753Z,78.75
2022-07-30T03:52:02.741Z,78.45
2022-07-30T03:53:02.757Z,78.45
2022-07-30T03:54:02.698Z,78.65
2022-07-30T03:55:02.705Z,78.85
2022-07-30T03:56:02.690Z,78.85
2022-07-30T03:57:03.203Z,79.05
2022-07-30T03:58:02.688Z,78.85
2022-07-30T03:59:02.654Z,78.85
2022-07-30T04:00:02.641Z,78.55
2022-07-30T04:01:02.605Z,78.45
2022-07-30T04:02:05.978Z,78.25
2022-07-30T04:03:02.618Z,78.15
2022-07-30T04:04:02.660Z,78.35
2022-07-30T04:05:02.567Z,78.69
2022-07-30T04:06:02.535Z,78.99
2022-07-30T04:07:02.702Z,79.09
2022-07-30T04:08:02.527Z,78.99
2022-07-30T04:09:02.550Z,78.96
2022-07-30T04:10:02.481Z,78.75
2022-07-30T04:11:02.497Z,78.55
2022-07-30T04:12:02.471Z,78.45
2022-07-30T04:13:05.375Z,78.45
2022-07-30T04:14:02.489Z,78.25
2022-07-30T04:15:02.429Z,78.35
2022-07-30T04:16:38.994Z,78.35
2022-07-30T04:17:02.902Z,78.45
2022-07-30T04:18:02.382Z,78.35
2022-07-30T04:19:02.697Z,78.35
2022-07-30T04:20:02.371Z,78.35
2022-07-30T04:21:02.379Z,78.45
2022-07-30T04:22:02.368Z,78.35
2022-07-30T04:23:02.340Z,78.35
2022-07-30T04:24:05.158Z,78.45
2022-07-30T04:25:02.290Z,78.45
2022-07-30T04:26:02.289Z,78.45
2022-07-30T04:27:02.752Z,78.65
2022-07-30T04:28:03.765Z,78.55
2022-07-30T04:29:02.279Z,78.45
2022-07-30T04:30:02.275Z,78.45
2022-07-30T04:31:02.234Z,78.35
2022-07-30T04:32:02.219Z,78.35
2022-07-30T04:33:02.187Z,78.35
2022-07-30T04:34:03.001Z,78.25
2022-07-30T04:35:02.189Z,78.55
2022-07-30T04:36:02.142Z,78.55
2022-07-30T04:37:02.415Z,78.65
2022-07-30T04:38:02.121Z,78.65
2022-07-30T04:39:02.148Z,78.65
2022-07-30T04:40:02.115Z,78.65
2022-07-30T04:41:02.090Z,78.55
2022-07-30T04:42:02.092Z,78.45
2022-07-30T04:43:02.061Z,78.55
2022-07-30T04:44:02.078Z,78.45
2022-07-30T04:45:02.071Z,78.75
2022-07-30T04:46:02.087Z,78.55
2022-07-30T04:47:02.534Z,78.55
2022-07-30T04:48:01.975Z,78.75
2022-07-30T04:49:02.039Z,78.75
2022-07-30T04:50:02.000Z,78.65
2022-07-30T04:51:01.970Z,78.65
2022-07-30T04:52:01.998Z,78.45
2022-07-30T04:53:01.959Z,78.55
2022-07-30T04:54:01.919Z,78.25
2022-07-30T04:55:01.967Z,78.35
2022-07-30T04:56:01.888Z,78.15
2022-07-30T04:57:02.348Z,78.15
2022-07-30T04:58:02.121Z,78.25
2022-07-30T04:59:01.851Z,77.95
2022-07-30T05:00:01.864Z,77.95
2022-07-30T05:01:01.831Z,77.75
2022-07-30T05:02:01.860Z,77.75
2022-07-30T05:03:01.809Z,77.75
2022-07-30T05:04:01.793Z,77.64
2022-07-30T05:05:01.840Z,77.84
2022-07-30T05:06:01.818Z,77.61
2022-07-30T05:07:02.013Z,77.61
2022-07-30T05:08:01.754Z,77.31
2022-07-30T05:09:01.716Z,77.31
2022-07-30T05:10:01.723Z,77.11
2022-07-30T05:11:01.753Z,77.11
2022-07-30T05:12:01.690Z,77.20
2022-07-30T05:13:01.685Z,77.00
2022-07-30T05:14:01.674Z,77.07
2022-07-30T05:15:01.675Z,77.07
2022-07-30T05:16:01.668Z,76.97
2022-07-30T05:17:01.967Z,76.87
2022-07-30T05:18:01.588Z,76.87
2022-07-30T05:19:01.606Z,76.76
2022-07-30T05:20:01.578Z,76.56
2022-07-30T05:21:01.547Z,76.67
2022-07-30T05:22:06.371Z,76.76
2022-07-30T05:23:01.571Z,76.76
2022-07-30T05:24:01.515Z,76.67
2022-07-30T05:25:01.519Z,76.87
2022-07-30T05:26:01.525Z,76.76
2022-07-30T05:27:01.874Z,76.87
2022-07-30T05:28:01.472Z,76.97
2022-07-30T05:29:03.951Z,77.27
2022-07-30T05:30:01.495Z,77.07
2022-07-30T05:31:01.444Z,77.27
2022-07-30T05:32:02.652Z,77.27
2022-07-30T05:33:03.716Z,77.17
2022-07-30T05:34:03.567Z,76.83
2022-07-30T05:35:01.452Z,76.83
2022-07-30T05:36:01.409Z,76.83
2022-07-30T05:37:01.934Z,76.63
2022-07-30T05:38:01.367Z,76.63
2022-07-30T05:39:01.362Z,76.43
2022-07-30T05:40:03.261Z,76.23
2022-07-30T05:41:01.293Z,76.03
2022-07-30T05:42:01.306Z,76.03
2022-07-30T05:43:01.276Z,76.03
2022-07-30T05:44:01.262Z,76.03
2022-07-30T05:45:01.260Z,76.03
2022-07-30T05:46:01.349Z,76.12
2022-07-30T05:47:01.592Z,76.12
2022-07-30T05:48:01.223Z,76.32
2022-07-30T05:49:01.250Z,75.99
2022-07-30T05:50:04.715Z,75.99
2022-07-30T05:51:01.183Z,75.79
2022-07-30T05:52:01.259Z,75.49
2022-07-30T05:53:01.134Z,75.59
2022-07-30T05:54:01.131Z,75.79
2022-07-30T05:55:01.246Z,75.59
2022-07-30T05:56:01.110Z,75.89
2022-07-30T05:57:01.412Z,75.79
2022-07-30T05:58:01.067Z,75.68
2022-07-30T05:59:01.057Z,75.68
2022-07-30T06:00:01.126Z,75.89
2022-07-30T06:01:01.066Z,75.55
2022-07-30T06:02:01.062Z,75.45
2022-07-30T06:03:01.033Z,75.05
2022-07-30T06:04:01.096Z,74.95
2022-07-30T06:05:01.094Z,74.95
2022-07-30T06:06:00.974Z,75.01
2022-07-30T06:07:01.279Z,74.81
2022-07-30T06:08:00.956Z,74.61
2022-07-30T06:09:00.950Z,74.11
2022-07-30T06:10:00.904Z,74.01
2022-07-30T06:11:00.958Z,74.01
2022-07-30T06:12:00.938Z,73.87
2022-07-30T06:13:00.878Z,73.27
2022-07-30T06:14:00.896Z,72.77
2022-07-30T06:15:00.843Z,72.87
2022-07-30T06:16:00.951Z,72.77
2022-07-30T06:17:01.217Z,72.77
2022-07-30T06:18:01.703Z,72.67
2022-07-30T06:19:00.823Z,72.67
2022-07-30T06:20:00.789Z,72.33
2022-07-30T06:21:00.775Z,72.33
2022-07-30T06:22:05.931Z,72.24
2022-07-30T06:23:00.767Z,72.24
2022-07-30T06:24:01.232Z,72.03
2022-07-30T06:25:00.707Z,71.83
2022-07-30T06:26:00.723Z,72.03
2022-07-30T06:27:01.035Z,71.83
2022-07-30T06:28:10.681Z,71.70
2022-07-30T06:29:00.710Z,71.90
2022-07-30T06:30:00.663Z,71.70
2022-07-30T06:31:00.689Z,71.39
2022-07-30T06:32:00.639Z,71.09
2022-07-30T06:33:00.650Z,70.79
2022-07-30T06:34:00.634Z,70.96
2022-07-30T06:35:04.611Z,70.86
2022-07-30T06:36:00.607Z,70.56
2022-07-30T06:37:00.863Z,70.06
2022-07-30T06:38:07.315Z,69.62
2022-07-30T06:39:00.536Z,69.23
2022-07-30T06:40:00.556Z,69.12
2022-07-30T06:41:02.810Z,68.82
2022-07-30T06:42:00.517Z,68.49
2022-07-30T06:43:00.543Z,68.29
2022-07-30T06:44:00.471Z,68.29
2022-07-30T06:45:00.452Z,68.05
2022-07-30T06:46:00.577Z,67.46
2022-07-30T06:47:06.800Z,67.86
2022-07-30T06:48:00.499Z,67.52
2022-07-30T06:49:00.531Z,67.52
2022-07-30T06:50:00.412Z,67.63
2022-07-30T06:51:00.431Z,67.13
2022-07-30T06:52:00.387Z,67.13
2022-07-30T06:53:00.403Z,67.63
2022-07-30T06:54:00.370Z,68.13
2022-07-30T06:55:00.324Z,67.79
2022-07-30T06:56:00.740Z,67.40
2022-07-30T06:57:00.694Z,67.09
2022-07-30T06:58:00.338Z,66.49
2022-07-30T06:59:00.329Z,66.39
2022-07-30T07:00:01.056Z,66.49
2022-07-30T07:01:00.369Z,66.29
2022-07-30T07:02:00.247Z,66.29
2022-07-30T07:03:00.238Z,66.39
2022-07-30T07:04:00.326Z,66.39
2022-07-30T07:05:00.226Z,65.59
2022-07-30T07:06:00.192Z,65.69
2022-07-30T07:07:00.384Z,65.79
2022-07-30T07:08:00.166Z,65.79
2022-07-30T07:09:00.186Z,66.09
2022-07-30T07:10:00.163Z,66.29
2022-07-30T07:11:00.125Z,66.19
2022-07-30T07:12:00.117Z,66.59
2022-07-30T07:13:00.163Z,66.59
2022-07-30T07:14:04.157Z,66.79
2022-07-30T07:15:00.108Z,66.59
2022-07-30T07:16:00.068Z,66.59
2022-07-30T07:17:00.290Z,66.99
2022-07-30T07:18:02.228Z,66.86
2022-07-30T07:19:00.075Z,67.09
2022-07-30T07:20:02.587Z,67.19
2022-07-30T07:21:00.009Z,67.29
2022-07-30T07:22:00.069Z,67.59
2022-07-30T07:22:59.951Z,67.49
2022-07-30T07:24:00.013Z,67.99
2022-07-30T07:24:59.974Z,67.89
2022-07-30T07:25:59.949Z,68.29
2022-07-30T07:27:00.245Z,67.59
2022-07-30T07:28:12.595Z,67.40
2022-07-30T07:29:03.479Z,68.09
2022-07-30T07:30:01.304Z,67.79
2022-07-30T07:30:59.928Z,67.76
2022-07-30T07:32:05.366Z,67.36
2022-07-30T07:32:59.821Z,67.46
2022-07-30T07:33:59.885Z,67.86
2022-07-30T07:34:59.864Z,66.66
2022-07-30T07:35:59.821Z,66.56
2022-07-30T07:37:00.052Z,66.36
2022-07-30T07:37:59.767Z,66.16
2022-07-30T07:38:59.758Z,65.76
2022-07-30T07:39:59.757Z,65.76
2022-07-30T07:40:59.761Z,65.36
2022-07-30T07:41:59.748Z,65.53
2022-07-30T07:42:59.718Z,66.23
2022-07-30T07:43:59.762Z,66.53
2022-07-30T07:44:59.693Z,65.63
2022-07-30T07:45:59.733Z,65.40
2022-07-30T07:47:00.115Z,65.50
2022-07-30T07:47:59.635Z,65.60
2022-07-30T07:48:59.766Z,65.40
2022-07-30T07:49:59.632Z,65.70
2022-07-30T07:51:00.577Z,65.40
2022-07-30T07:51:59.598Z,66.20
2022-07-30T07:52:59.594Z,66.30
2022-07-30T07:54:19.838Z,66.09
2022-07-30T07:54:59.567Z,65.56
2022-07-30T07:55:59.566Z,65.77
2022-07-30T07:57:01.486Z,64.47
2022-07-30T07:57:59.515Z,64.34
2022-07-30T07:58:59.539Z,64.04
2022-07-30T07:59:59.514Z,64.11
2022-07-30T08:00:59.531Z,64.01
2022-07-30T08:01:59.503Z,62.88
2022-07-30T08:02:59.448Z,62.35
2022-07-30T08:03:59.521Z,61.83
2022-07-30T08:04:59.497Z,61.50
2022-07-30T08:06:05.599Z,60.87
2022-07-30T08:06:59.699Z,60.74
2022-07-30T08:07:59.793Z,60.61
2022-07-30T08:08:59.356Z,60.12
2022-07-30T08:09:59.358Z,59.00
2022-07-30T08:10:59.390Z,58.50
2022-07-30T08:11:59.355Z,57.60
2022-07-30T08:12:59.328Z,58.00
2022-07-30T08:13:59.336Z,57.21
2022-07-30T08:14:59.282Z,57.14
2022-07-30T08:15:59.309Z,58.33
2022-07-30T08:16:59.353Z,58.53
2022-07-30T08:17:59.261Z,57.60
2022-07-30T08:18:59.235Z,56.61
2022-07-30T08:19:59.239Z,56.59
2022-07-30T08:20:59.203Z,55.59
2022-07-30T08:21:59.253Z,56.16
2022-07-30T08:22:59.206Z,55.66
2022-07-30T08:23:59.174Z,56.13
2022-07-30T08:24:59.165Z,54.75
2022-07-30T08:25:59.192Z,54.35
2022-07-30T08:26:59.415Z,54.32
2022-07-30T08:27:59.155Z,54.52
2022-07-30T08:28:59.117Z,54.42
2022-07-30T08:29:59.088Z,53.80
2022-07-30T08:31:02.069Z,54.10
2022-07-30T08:31:59.457Z,53.01
2022-07-30T08:32:59.101Z,53.20
2022-07-30T08:33:59.050Z,53.11
2022-07-30T08:34:59.034Z,51.82
2022-07-30T08:36:02.868Z,52.91
2022-07-30T08:36:59.034Z,53.01
2022-07-30T08:37:59.037Z,53.28
2022-07-30T08:38:59.215Z,51.40
2022-07-30T08:39:59.035Z,51.40
2022-07-30T08:40:58.943Z,52.02
2022-07-30T08:41:58.977Z,52.41
2022-07-30T08:42:58.932Z,51.23
2022-07-30T08:43:58.934Z,51.62
2022-07-30T08:44:58.947Z,52.12
2022-07-30T08:45:58.883Z,52.59
2022-07-30T08:46:59.361Z,51.77
2022-07-30T08:47:58.881Z,51.07
2022-07-30T08:48:59.899Z,50.56
2022-07-30T08:49:58.891Z,49.94
2022-07-30T08:50:58.917Z,49.54
2022-07-30T08:51:59.058Z,49.42
2022-07-30T08:52:58.848Z,49.42
2022-07-30T08:53:58.847Z,49.42
2022-07-30T08:54:58.789Z,48.41
2022-07-30T08:55:58.907Z,48.31
2022-07-30T08:56:58.743Z,48.51
2022-07-30T08:57:58.765Z,48.61
2022-07-30T08:58:58.737Z,49.52
2022-07-30T09:00:00.535Z,49.01
2022-07-30T09:00:58.704Z,48.11
2022-07-30T09:01:59.084Z,47.52
2022-07-30T09:02:58.694Z,48.11
2022-07-30T09:03:58.744Z,47.30
2022-07-30T09:04:58.658Z,46.98
2022-07-30T09:05:58.738Z,45.78
2022-07-30T09:06:59.078Z,46.37
2022-07-30T09:07:58.635Z,46.17
2022-07-30T09:08:58.584Z,47.18
2022-07-30T09:09:58.575Z,47.57
2022-07-30T09:10:58.603Z,46.96
2022-07-30T09:11:58.568Z,47.57
2022-07-30T09:12:58.559Z,47.38
2022-07-30T09:13:58.541Z,47.99
2022-07-30T09:14:58.523Z,46.93
2022-07-30T09:15:58.571Z,47.89
2022-07-30T09:16:58.693Z,46.61
2022-07-30T09:17:58.523Z,47.10
2022-07-30T09:18:58.466Z,46.73
2022-07-30T09:19:58.489Z,46.73
2022-07-30T09:20:58.449Z,46.73
2022-07-30T09:21:58.457Z,47.42
2022-07-30T09:22:58.407Z,47.22
2022-07-30T09:23:58.434Z,46.91
2022-07-30T09:24:58.407Z,47.20
2022-07-30T09:25:58.402Z,46.29
2022-07-30T09:26:58.406Z,46.78
2022-07-30T09:27:58.367Z,46.88
2022-07-30T09:28:58.338Z,46.39
2022-07-30T09:29:58.368Z,45.87
2022-07-30T09:30:58.336Z,45.26
2022-07-30T09:31:58.307Z,44.84
2022-07-30T09:32:58.296Z,44.33
2022-07-30T09:33:58.283Z,43.52
2022-07-30T09:34:58.285Z,44.33
2022-07-30T09:35:58.252Z,43.17
2022-07-30T09:36:58.258Z,43.48
2022-07-30T09:38:00.766Z,42.89
2022-07-30T09:38:58.235Z,43.59
2022-07-30T09:39:59.134Z,44.18
2022-07-30T09:40:58.314Z,43.59
2022-07-30T09:41:58.179Z,43.07
2022-07-30T09:42:58.171Z,42.97
2022-07-30T09:43:58.152Z,42.55
2022-07-30T09:44:58.123Z,43.05
2022-07-30T09:45:58.203Z,43.93
2022-07-30T09:46:58.130Z,42.97
2022-07-30T09:47:58.799Z,43.46
2022-07-30T09:48:58.133Z,43.37
2022-07-30T09:49:59.956Z,43.66
2022-07-30T09:50:58.072Z,43.34
2022-07-30T09:51:58.070Z,42.63
2022-07-30T09:52:58.037Z,42.04
2022-07-30T09:53:58.032Z,42.26
2022-07-30T09:54:58.004Z,42.77
2022-07-30T09:55:58.025Z,43.29
2022-07-30T09:56:57.993Z,43.86
2022-07-30T09:57:58.768Z,44.55
2022-07-30T09:58:57.955Z,43.93
2022-07-30T09:59:58.108Z,43.38
2022-07-30T10:00:58.156Z,43.60
2022-07-30T10:02:00.572Z,44.00
2022-07-30T10:02:57.955Z,44.20
2022-07-30T10:03:57.905Z,44.51
2022-07-30T10:04:57.885Z,44.00
2022-07-30T10:05:57.908Z,43.09
2022-07-30T10:06:57.875Z,42.40
2022-07-30T10:07:57.885Z,42.47
2022-07-30T10:08:57.866Z,42.28
2022-07-30T10:09:57.820Z,42.85
2022-07-30T10:10:57.787Z,42.76
2022-07-30T10:11:57.843Z,42.44
2022-07-30T10:12:57.780Z,42.41
2022-07-30T10:13:57.901Z,42.44
2022-07-30T10:14:57.751Z,42.55
2022-07-30T10:15:57.724Z,42.36
2022-07-30T10:16:57.740Z,43.34
2022-07-30T10:17:57.733Z,43.76
2022-07-30T10:18:57.775Z,43.46
2022-07-30T10:19:57.681Z,44.07
2022-07-30T10:20:57.690Z,43.88
2022-07-30T10:21:57.673Z,42.00
2022-07-30T10:22:57.670Z,41.31
2022-07-30T10:23:57.657Z,41.49
2022-07-30T10:24:57.622Z,41.49
2022-07-30T10:25:57.643Z,41.59
2022-07-30T10:26:57.618Z,42.08
2022-07-30T10:27:58.175Z,41.00
2022-07-30T10:28:57.622Z,41.51
2022-07-30T10:29:57.564Z,41.49
2022-07-30T10:30:57.574Z,40.62
2022-07-30T10:31:57.560Z,42.22
2022-07-30T10:32:57.540Z,42.24
2022-07-30T10:33:57.512Z,41.38
2022-07-30T10:34:57.505Z,42.08
2022-07-30T10:35:57.531Z,42.88
2022-07-30T10:36:57.465Z,43.05
2022-07-30T10:37:57.453Z,42.52
2022-07-30T10:38:57.473Z,41.91
2022-07-30T10:39:57.441Z,42.77
2022-07-30T10:40:57.418Z,41.39
2022-07-30T10:41:57.446Z,40.21
2022-07-30T10:42:57.388Z,40.61
2022-07-30T10:43:57.409Z,40.61
2022-07-30T10:44:57.366Z,41.67
2022-07-30T10:45:57.348Z,40.19
2022-07-30T10:46:57.335Z,39.70
2022-07-30T10:47:57.340Z,41.08
2022-07-30T10:48:57.532Z,39.92
2022-07-30T10:49:57.317Z,40.80
2022-07-30T10:50:57.281Z,40.70
2022-07-30T10:51:57.492Z,39.89
2022-07-30T10:52:57.323Z,40.19
2022-07-30T10:53:57.253Z,39.92
2022-07-30T10:54:57.253Z,39.81
2022-07-30T10:55:57.217Z,40.21
2022-07-30T10:56:57.230Z,40.21
2022-07-30T10:57:57.255Z,40.13
2022-07-30T10:58:57.224Z,40.23
2022-07-30T10:59:57.192Z,41.22
2022-07-30T11:00:57.161Z,40.31
2022-07-30T11:01:57.140Z,39.81
2022-07-30T11:02:57.155Z,40.33
2022-07-30T11:03:57.160Z,41.09
2022-07-30T11:04:57.130Z,39.62
2022-07-30T11:05:57.091Z,40.39
2022-07-30T11:06:57.082Z,40.80
2022-07-30T11:07:57.146Z,41.47
2022-07-30T11:08:58.256Z,41.27
2022-07-30T11:10:05.212Z,42.18
2022-07-30T11:10:57.045Z,40.72
2022-07-30T11:12:01.431Z,40.53
2022-07-30T11:12:57.046Z,41.31
2022-07-30T11:13:57.008Z,41.12
2022-07-30T11:14:56.983Z,42.52
2022-07-30T11:15:57.054Z,41.04
2022-07-30T11:16:56.984Z,41.04
2022-07-30T11:17:56.949Z,41.73
2022-07-30T11:19:07.099Z,41.14
2022-07-30T11:20:01.590Z,40.92
2022-07-30T11:20:56.960Z,41.22
2022-07-30T11:21:56.915Z,41.61
2022-07-30T11:22:56.980Z,40.31
2022-07-30T11:23:56.930Z,39.50
2022-07-30T11:24:56.896Z,39.50
2022-07-30T11:25:56.872Z,39.31
2022-07-30T11:26:56.838Z,40.58
2022-07-30T11:27:56.867Z,39.48
2022-07-30T11:28:56.865Z,40.17
2022-07-30T11:29:56.837Z,39.48
2022-07-30T11:30:56.792Z,39.17
2022-07-30T11:32:07.722Z,38.97
2022-07-30T11:32:56.787Z,39.56
2022-07-30T11:33:56.764Z,38.70
2022-07-30T11:34:56.726Z,39.18
2022-07-30T11:35:56.733Z,39.28
2022-07-30T11:36:56.760Z,39.50
2022-07-30T11:37:56.692Z,39.70
2022-07-30T11:39:00.096Z,40.21
2022-07-30T11:39:56.745Z,40.31
2022-07-30T11:40:56.669Z,40.29
2022-07-30T11:41:56.682Z,40.19
2022-07-30T11:42:56.645Z,39.58
2022-07-30T11:43:56.635Z,39.58
2022-07-30T11:44:59.727Z,38.89
2022-07-30T11:45:56.636Z,38.20
2022-07-30T11:46:56.577Z,37.61
2022-07-30T11:47:56.594Z,38.79
2022-07-30T11:48:56.648Z,38.20
2022-07-30T11:49:56.556Z,39.11
2022-07-30T11:51:00.714Z,38.32
2022-07-30T11:51:56.512Z,39.40
2022-07-30T11:52:56.493Z,38.81
2022-07-30T11:53:56.482Z,38.62
2022-07-30T11:54:56.474Z,38.32
2022-07-30T11:55:56.538Z,38.32
2022-07-30T11:56:59.558Z,38.79
2022-07-30T11:57:56.450Z,39.09
2022-07-30T11:58:56.435Z,38.49
2022-07-30T11:59:56.416Z,39.09
2022-07-30T12:00:56.414Z,38.89
2022-07-30T12:01:56.395Z,38.40
2022-07-30T12:02:58.817Z,39.18
2022-07-30T12:03:56.413Z,38.48
2022-07-30T12:04:56.389Z,37.99
2022-07-30T12:05:56.345Z,38.18
2022-07-30T12:06:56.356Z,38.17
2022-07-30T12:07:56.316Z,37.69
2022-07-30T12:08:58.689Z,37.99
2022-07-30T12:09:56.320Z,37.79
2022-07-30T12:10:56.286Z,37.57
2022-07-30T12:11:56.306Z,38.85
2022-07-30T12:12:56.294Z,37.48
2022-07-30T12:13:56.227Z,38.66
2022-07-30T12:15:00.214Z,37.67
2022-07-30T12:15:56.231Z,37.67
2022-07-30T12:16:56.203Z,37.18
2022-07-30T12:18:05.628Z,37.38
2022-07-30T12:18:56.204Z,37.67
2022-07-30T12:19:56.204Z,37.40
2022-07-30T12:20:57.688Z,37.59
2022-07-30T12:21:56.130Z,38.01
2022-07-30T12:22:56.172Z,37.51
2022-07-30T12:23:56.112Z,37.61
2022-07-30T12:24:56.099Z,37.69
2022-07-30T12:25:56.075Z,37.59
2022-07-30T12:26:56.077Z,37.99
2022-07-30T12:27:56.069Z,37.89
2022-07-30T12:28:56.051Z,38.36
2022-07-30T12:29:56.083Z,37.69
2022-07-30T12:30:56.013Z,37.49
2022-07-30T12:31:56.005Z,37.59
2022-07-30T12:32:56.015Z,38.18
2022-07-30T12:33:55.980Z,37.30
2022-07-30T12:34:56.266Z,37.59
2022-07-30T12:35:55.985Z,37.77
2022-07-30T12:36:55.958Z,37.08
2022-07-30T12:37:56.017Z,36.88
2022-07-30T12:38:55.978Z,37.48
2022-07-30T12:39:55.927Z,37.28
2022-07-30T12:40:55.918Z,37.38
2022-07-30T12:41:55.982Z,37.08
2022-07-30T12:42:55.930Z,38.17
2022-07-30T12:43:55.859Z,37.28
2022-07-30T12:44:55.864Z,37.89
2022-07-30T12:45:55.876Z,39.07
2022-07-30T12:46:55.818Z,38.17
2022-07-30T12:47:55.807Z,37.48
2022-07-30T12:48:55.862Z,36.99
2022-07-30T12:49:55.888Z,38.34
2022-07-30T12:50:55.769Z,37.16
2022-07-30T12:52:00.274Z,37.07